Latest Weather Observations for Essendon Airport

IDV60801

Issued at 7:02 pm EST Wednesday 25 May 2016 (issued every 30 minutes, with the page automatically refreshed every 10 minutes)

About weather observations | Map of weather stations | Latest weather observations for VIC | Other Formats
Station Details ID: 086038 Name: ESSENDON AIRPORT Lat: -37.73 Lon: 144.91 Height: 78.4 m
Data from the previous 72 hours. | See also: Recent months at Essendon Airport
Date/Time
EST
Temp
°C
App
Temp
°C
Dew
Point
Rel
Hum
%
Delta-T
°C
Wind Press
QNH
hPa
Press
MSL
hPa
Rain
since 9 am
mm
Dir
 
Spd
km/h
Gust
km/h
Spd
kts
Gust
kts
25/07:00pm 12.2 6.2 8.5 78 1.8 N 30 41 16 22 1009.1 1009.1 1.4
25/06:31pm 12.6 6.8 7.9 73 2.3 N 28 48 15 26 1008.8 1008.8 1.4
25/06:30pm 12.5 7.1 8.0 74 2.2 N 26 43 14 23 1008.8 1008.8 1.4
25/06:00pm 12.5 7.8 7.6 72 2.4 N 22 30 12 16 1009.0 1009.0 1.4
25/05:30pm 12.8 7.2 7.0 68 2.8 N 26 39 14 21 1008.6 1008.6 1.4
25/05:00pm 12.9 6.9 7.1 68 2.8 N 28 37 15 20 1009.2 1009.2 1.4
25/04:33pm 13.0 6.9 8.3 73 2.3 N 30 50 16 27 1009.1 1009.1 1.4
25/04:30pm 13.0 7.4 8.7 75 2.2 N 28 39 15 21 1009.2 1009.2 1.4
25/04:00pm 12.6 8.1 10.1 85 1.3 NNE 24 35 13 19 1009.4 1009.4 1.4
25/03:30pm 12.3 7.8 9.9 85 1.2 NNE 24 35 13 19 1009.7 1009.7 1.0
25/03:00pm 12.2 7.6 9.8 85 1.2 NNE 24 32 13 17 1010.0 1010.0 0.4
25/02:30pm 12.4 6.9 9.2 81 1.6 N 28 39 15 21 1010.2 1010.2 0.2
25/02:00pm 12.6 6.2 8.7 77 2.0 N 32 44 17 24 1010.2 1010.2 0.0
25/01:30pm 13.8 7.9 7.3 65 3.2 N 28 39 15 21 1010.4 1010.4 0.0
25/01:00pm 13.8 7.9 7.6 66 3.1 N 28 50 15 27 1011.1 1011.1 0.0
25/12:33pm 14.3 8.3 7.1 62 3.5 N 28 46 15 25 1011.6 1011.7 0.0
25/12:30pm 14.3 7.5 7.1 62 3.5 N 32 46 17 25 1011.6 1011.7 0.0
25/12:09pm 15.1 9.1 6.9 58 4.0 N 28 46 15 25 1011.7 1011.8 0.0
25/12:00pm 15.0 10.1 7.1 59 3.9 N 22 35 12 19 1012.0 1012.1 0.0
25/11:30am 14.5 9.9 8.0 65 3.3 N 22 32 12 17 1012.6 1012.7 0.0
25/11:00am 13.7 9.4 9.2 74 2.3 NNE 22 32 12 17 1013.5 1013.6 0.0
25/10:30am 12.9 7.8 9.2 78 1.9 N 26 37 14 20 1014.0 1014.1 0.0
25/10:00am 12.3 6.8 9.0 80 1.7 N 28 39 15 21 1014.1 1014.2 0.0
25/09:30am 11.8 5.5 8.8 82 1.5 N 32 43 17 23 1014.4 1014.5 0.0
25/09:00am 11.3 4.3 8.5 83 1.4 N 35 46 19 25 1014.5 1014.6 0.2
25/08:30am 11.0 4.9 8.2 83 1.4 N 30 41 16 22 1014.5 1014.6 0.2
25/08:00am 11.1 6.1 8.0 81 1.5 N 24 41 13 22 1014.7 1014.8 0.2
25/07:30am 11.0 6.7 7.7 80 1.6 N 20 32 11 17 1015.0 1015.1 0.2
25/07:00am 11.0 5.5 7.5 79 1.7 N 26 33 14 18 1015.0 1015.1 0.2
25/06:30am 10.8 5.9 6.9 77 1.9 N 22 32 12 17 1015.2 1015.2 0.2
25/06:00am 10.8 5.6 7.1 78 1.8 N 24 33 13 18 1014.9 1015.0 0.2
25/05:30am 10.4 6.5 7.1 80 1.6 N 17 28 9 15 1015.2 1015.2 0.2
25/05:00am 9.8 5.9 6.9 82 1.4 N 17 24 9 13 1015.5 1015.5 0.2
25/04:30am 8.2 5.4 5.3 82 1.3 NE 9 11 5 6 1015.5 1015.5 0.2
25/04:00am 8.6 5.6 6.1 84 1.1 NNE 11 13 6 7 1015.9 1015.9 0.2
25/03:30am 9.1 6.1 6.2 82 1.3 N 11 15 6 8 1016.4 1016.4 0.2
25/03:00am 9.1 5.8 6.2 82 1.3 N 13 15 7 8 1016.7 1016.7 0.2
25/02:30am 9.3 5.5 6.0 80 1.5 N 15 19 8 10 1016.8 1016.8 0.2
25/02:00am 9.6 5.5 6.3 80 1.5 N 17 20 9 11 1017.0 1017.0 0.2
25/01:30am 9.4 5.3 6.3 81 1.4 N 17 20 9 11 1017.2 1017.2 0.2
25/01:00am 9.3 5.2 6.2 81 1.4 N 17 22 9 12 1017.4 1017.4 0.2
25/12:30am 8.6 4.9 6.1 84 1.1 N 15 19 8 10 1017.6 1017.6 0.2
25/12:00am 8.1 5.1 5.9 86 1.0 N 11 13 6 7 1018.2 1018.2 0.2
 
Date/Time
EST
Temp
°C
App
Temp
°C
Dew
Point
Rel
Hum
%
Delta-T
°C
Wind Press
QNH
hPa
Press
MSL
hPa
Rain
since 9 am
mm
Dir
 
Spd
km/h
Gust
km/h
Spd
kts
Gust
kts
24/11:30pm 7.4 4.2 5.0 85 1.1 NNE 11 13 6 7 1018.0 1018.0 0.2
24/11:00pm 8.1 5.0 5.7 85 1.1 N 11 13 6 7 1018.3 1018.3 0.2
24/10:30pm 8.7 6.1 6.0 83 1.2 N 9 11 5 6 1018.4 1018.4 0.2
24/10:00pm 8.2 5.2 6.2 87 0.9 N 11 13 6 7 1018.9 1018.9 0.2
24/09:30pm 8.7 5.4 6.2 84 1.2 N 13 17 7 9 1019.4 1019.4 0.2
24/09:00pm 9.0 5.4 6.6 85 1.1 N 15 19 8 10 1019.8 1019.8 0.2
24/08:30pm 9.4 6.2 7.0 85 1.1 N 13 15 7 8 1019.8 1019.8 0.2
24/08:00pm 9.6 6.7 6.7 82 1.4 N 11 13 6 7 1019.9 1019.9 0.2
24/07:30pm 10.0 7.2 6.9 81 1.5 N 11 11 6 6 1019.8 1019.8 0.2
24/07:00pm 11.8 11.0 6.5 70 2.5 CALM 0 0 0 0 1019.7 1019.7 0.2
24/06:30pm 12.3 11.6 7.0 70 2.6 CALM 0 0 0 0 1019.7 1019.7 0.2
24/06:00pm 11.6 10.8 6.5 71 2.4 CALM 0 2 0 1 1019.5 1019.5 0.2
24/05:30pm 12.0 9.4 6.3 68 2.7 S 9 13 5 7 1019.2 1019.2 0.2
24/05:00pm 13.0 9.8 6.8 66 3.0 S 13 17 7 9 1019.1 1019.1 0.2
24/04:30pm 14.0 10.4 6.8 62 3.5 SW 15 20 8 11 1019.4 1019.4 0.2
24/04:00pm 14.8 10.8 6.6 58 4.0 SW 17 22 9 12 1019.3 1019.3 0.2
24/03:30pm 14.7 10.1 6.3 57 4.1 SW 20 26 11 14 1019.2 1019.2 0.2
24/03:00pm 15.1 10.9 5.9 54 4.4 SW 17 26 9 14 1019.2 1019.2 0.2
24/02:30pm 15.5 10.4 6.0 53 4.6 SW 22 30 12 16 1019.2 1019.2 0.2
24/02:00pm 15.3 10.7 6.6 56 4.2 SW 20 28 11 15 1019.4 1019.4 0.0
24/01:30pm 16.0 12.2 7.5 57 4.3 WSW 17 24 9 13 1019.5 1019.5 0.0
24/01:00pm 15.2 10.2 6.5 56 4.2 WSW 22 32 12 17 1019.5 1019.5 0.0
24/12:30pm 15.0 10.7 6.8 58 4.0 WSW 19 26 10 14 1020.0 1020.0 0.0
24/12:00pm 14.7 9.9 7.5 62 3.6 WSW 22 30 12 16 1020.2 1020.2 0.0
24/11:30am 14.3 8.9 7.8 65 3.2 WSW 26 33 14 18 1020.9 1020.9 0.0
24/11:00am 13.8 7.3 8.0 68 2.9 WSW 32 37 17 20 1021.3 1021.3 0.0
24/10:30am 14.0 9.3 9.2 73 2.5 W 24 30 13 16 1021.2 1021.2 0.0
24/10:00am 13.0 8.6 8.9 76 2.1 W 22 30 12 16 1021.3 1021.3 0.0
24/09:30am 12.6 8.2 8.9 78 1.9 W 22 28 12 15 1021.1 1021.1 0.0
24/09:00am 12.0 8.6 9.0 82 1.5 WNW 17 24 9 13 1021.1 1021.1 1.2
24/08:30am 11.1 7.2 8.7 85 1.2 WNW 19 24 10 13 1020.9 1020.9 1.2
24/08:00am 10.3 6.4 8.6 89 0.8 WNW 19 20 10 11 1020.7 1020.7 1.2
24/07:30am 10.0 6.8 8.3 89 0.8 WNW 15 19 8 10 1020.5 1020.5 1.2
24/07:00am 10.2 7.0 8.3 88 0.9 WNW 15 19 8 10 1020.1 1020.1 1.2
24/06:30am 10.6 7.0 8.5 87 1.0 WNW 17 20 9 11 1019.8 1019.8 1.2
24/06:00am 10.4 7.3 8.7 89 0.8 WNW 15 17 8 9 1019.6 1019.6 1.2
24/05:30am 10.3 7.4 8.2 87 1.0 NW 13 19 7 10 1019.5 1019.5 1.2
24/05:00am 10.7 7.8 8.3 85 1.2 NW 13 17 7 9 1019.5 1019.5 1.2
24/04:30am 10.3 7.7 7.9 85 1.2 NW 11 17 6 9 1019.4 1019.4 1.2
24/04:00am 10.6 7.8 8.4 86 1.1 NW 13 17 7 9 1019.3 1019.3 1.2
24/03:30am 10.7 7.5 8.3 85 1.2 NW 15 19 8 10 1019.3 1019.3 1.2
24/03:00am 10.9 7.8 8.8 87 1.0 NW 15 17 8 9 1019.3 1019.3 1.2
24/02:30am 11.0 8.8 9.4 90 0.8 WNW 11 15 6 8 1019.4 1019.4 1.2
24/02:00am 10.9 8.3 9.5 91 0.7 NW 13 17 7 9 1019.2 1019.2 1.2
24/01:30am 10.4 7.3 9.0 91 0.7 WNW 15 19 8 10 1019.3 1019.3 1.2
24/01:00am 10.3 7.6 8.9 91 0.7 NW 13 15 7 8 1019.4 1019.4 1.2
24/12:30am 10.2 7.5 8.8 91 0.7 NW 13 17 7 9 1019.5 1019.5 1.2
24/12:00am 10.0 7.3 8.9 93 0.5 NW 13 19 7 10 1019.7 1019.7 1.2
 
Date/Time
EST
Temp
°C
App
Temp
°C
Dew
Point
Rel
Hum
%
Delta-T
°C
Wind Press
QNH
hPa
Press
MSL
hPa
Rain
since 9 am
mm
Dir
 
Spd
km/h
Gust
km/h
Spd
kts
Gust
kts
23/11:30pm 9.9 7.6 9.0 94 0.4 NW 11 15 6 8 1019.7 1019.7 1.0
23/11:00pm 10.5 8.0 9.7 95 0.4 NW 13 17 7 9 1019.6 1019.6 1.0
23/10:30pm 10.8 8.5 10.5 98 0.2 NW 13 15 7 8 1019.6 1019.6 1.0
23/10:00pm 10.6 9.1 10.4 99 0.1 NW 9 13 5 7 1019.6 1019.6 1.0
23/09:30pm 10.8 8.9 10.6 99 0.1 WNW 11 15 6 8 1019.6 1019.6 1.0
23/09:00pm 10.9 9.4 10.7 99 0.1 W 9 11 5 6 1019.4 1019.4 1.0
23/08:30pm 10.9 9.3 10.3 96 0.3 W 9 13 5 7 1019.4 1019.4 0.8
23/08:16pm 11.0 9.7 10.1 94 0.5 SW 7 9 4 5 1019.3 1019.3 0.6
23/08:00pm 11.2 9.1 9.6 90 0.8 SSW 11 17 6 9 1019.3 1019.3 0.2
23/07:30pm 12.6 8.9 7.9 73 2.3 WNW 17 26 9 14 1019.1 1019.1 0.0
23/07:00pm 12.6 9.2 7.5 71 2.5 NW 15 24 8 13 1018.6 1018.6 0.0
23/06:30pm 12.8 9.5 7.9 72 2.4 NW 15 22 8 12 1018.5 1018.5 0.0
23/06:00pm 12.1 10.5 8.0 76 2.0 WNW 6 7 3 4 1018.4 1018.4 0.0
23/05:30pm 11.9 9.4 8.0 77 1.9 WSW 11 17 6 9 1018.4 1018.4 0.0
23/05:00pm 13.0 8.0 6.4 64 3.2 SW 22 30 12 16 1018.3 1018.3 0.0
23/04:30pm 14.0 6.6 5.1 55 4.2 WSW 33 44 18 24 1018.0 1018.0 0.0
23/04:00pm 15.2 8.9 3.7 46 5.3 WSW 26 35 14 19 1017.5 1017.5 0.0
23/03:30pm 15.3 8.4 2.8 43 5.6 W 28 37 15 20 1017.5 1017.5 0.0
23/03:00pm 15.3 8.4 2.5 42 5.7 W 28 39 15 21 1017.3 1017.3 0.0
23/02:30pm 15.1 7.9 3.0 44 5.5 W 30 41 16 22 1017.2 1017.2 0.0
23/02:00pm 15.6 7.4 2.7 42 5.8 WSW 35 46 19 25 1017.2 1017.2 0.0
23/01:30pm 14.7 6.6 3.2 46 5.2 W 35 48 19 26 1017.5 1017.5 0.0
23/01:00pm 15.7 7.8 4.1 46 5.4 W 35 52 19 28 1017.7 1017.7 0.0
23/12:49pm 15.4 7.7 3.2 44 5.6 W 33 52 18 28 1017.7 1017.7 0.0
23/12:30pm 15.5 7.5 3.9 46 5.4 W 35 44 19 24 1017.8 1017.8 0.0
23/12:00pm 14.7 5.9 3.5 47 5.1 WSW 39 54 21 29 1017.8 1017.8 0.0
23/11:50am 15.2 6.5 4.3 48 5.1 W 39 57 21 31 1018.0 1018.0 0.0
23/11:30am 15.1 7.3 4.8 50 4.8 WSW 35 50 19 27 1018.2 1018.2 0.0
23/11:00am 14.3 7.1 5.7 56 4.1 W 33 44 18 24 1018.5 1018.5 0.0
23/10:30am 13.9 7.7 6.3 60 3.7 W 28 43 15 23 1018.0 1018.0 0.0
23/10:00am 13.6 8.2 6.5 62 3.4 W 24 35 13 19 1017.4 1017.4 0.0
23/09:30am 12.9 7.4 5.8 62 3.4 W 24 32 13 17 1017.0 1017.0 0.0
23/09:00am 12.4 5.4 6.0 65 3.0 W 32 39 17 21 1016.9 1016.9 2.6
23/08:30am 12.3 6.8 6.1 66 2.9 W 24 33 13 18 1016.4 1016.4 2.6
23/08:00am 12.2 6.3 6.0 66 2.9 WNW 26 35 14 19 1016.1 1016.1 2.6
23/07:30am 12.4 5.8 6.0 65 3.0 WNW 30 39 16 21 1015.4 1015.4 2.6
23/07:00am 12.9 5.7 6.0 63 3.3 WNW 33 50 18 27 1014.6 1014.7 2.6
23/06:47am 12.8 6.7 6.4 65 3.1 WNW 28 48 15 26 1014.2 1014.3 2.6
23/06:30am 12.9 7.6 6.9 67 2.9 W 24 33 13 18 1013.8 1013.9 2.6
23/06:00am 13.5 10.1 7.7 68 2.9 NW 15 20 8 11 1013.3 1013.4 2.6
23/05:30am 13.1 9.4 7.8 70 2.6 WNW 17 24 9 13 1012.8 1012.9 2.6
23/05:00am 13.6 9.9 8.0 69 2.8 NW 17 24 9 13 1012.2 1012.3 2.6
23/04:30am 14.1 9.1 8.1 67 3.0 NW 24 37 13 20 1011.7 1011.8 2.6
23/04:00am 14.6 9.7 8.3 66 3.2 NW 24 35 13 19 1011.6 1011.7 2.6
23/03:30am 14.3 9.7 8.0 66 3.1 NNW 22 35 12 19 1011.3 1011.3 2.6
23/03:00am 14.4 9.9 8.4 67 3.0 NW 22 32 12 17 1010.6 1010.6 2.6
23/02:30am 14.6 10.5 11.4 81 1.7 WNW 24 43 13 23 1011.0 1011.0 2.6
23/02:29am 14.7 10.7 11.7 82 1.6 WNW 24 32 13 17 1011.1 1011.1 2.6
23/02:09am 15.5 12.1 12.6 83 1.6 NW 22 41 12 22 1011.4 1011.5 1.6
23/02:00am 16.9 14.5 12.8 77 2.3 N 17 20 9 11 1010.6 1010.6 0.0
23/01:30am 17.7 14.6 12.2 70 3.0 NNW 20 35 11 19 1010.4 1010.4 0.0
23/01:00am 18.5 15.2 10.8 61 4.2 N 19 28 10 15 1010.2 1010.2 0.0
23/12:30am 18.8 13.6 10.1 57 4.7 NNW 28 35 15 19 1010.2 1010.2 0.0
23/12:00am 18.8 13.9 10.1 57 4.7 N 26 39 14 21 1009.8 1009.8 0.0
 
Date/Time
EST
Temp
°C
App
Temp
°C
Dew
Point
Rel
Hum
%
Delta-T
°C
Wind Press
QNH
hPa
Press
MSL
hPa
Rain
since 9 am
mm
Dir
 
Spd
km/h
Gust
km/h
Spd
kts
Gust
kts
22/11:30pm 19.4 13.7 9.9 54 5.1 N 30 44 16 24 1009.7 1009.7 0.0
22/11:00pm 19.6 13.0 10.0 54 5.2 N 35 48 19 26 1009.7 1009.7 0.0
22/10:31pm 21.1 14.8 9.7 48 6.1 N 33 56 18 30 1010.2 1010.2 0.0
22/10:30pm 20.9 14.5 9.5 48 6.1 N 33 46 18 25 1010.3 1010.3 0.0
22/10:00pm 21.0 15.4 8.9 46 6.4 NNE 28 39 15 21 1009.9 1009.9 0.0
22/09:30pm 21.0 15.4 8.9 46 6.4 NNE 28 37 15 20 1010.2 1010.2 0.0
22/09:00pm 21.1 15.9 8.7 45 6.6 NNE 26 44 14 24 1010.9 1010.9 0.0
22/08:30pm 20.7 15.2 9.0 47 6.2 NNE 28 41 15 22 1011.2 1011.2 0.0
22/08:00pm 20.2 14.3 9.2 49 5.8 NNE 30 46 16 25 1011.1 1011.1 0.0
22/07:30pm 20.1 13.7 9.4 50 5.7 N 33 48 18 26 1011.2 1011.2 0.0

Other Formats:

Comma delimited format used in spreadsheet applications
http://www.bom.gov.au/fwo/IDV60801/IDV60801.95866.axf

JavaScript Object Notation format (JSON) in row-major order
http://www.bom.gov.au/fwo/IDV60801/IDV60801.95866.json